TW-0017 weather

Maritime Patrol Directorate General Helipad
Tanshui, Taipei County, Taiwan

Public forecast

Using degrees Celsius for public forecast. Weather courtesy of forecast.io.

METAR (pilot weather report)

Closest report is Taipei Songshan Airport, 9.6 nm (17.7 km) SE. Retrieved 2019/09/23 08:30 UTC (0 seconds ago):

RCSS 230830Z 08011KT 9999 FEW020 27/20 Q1016 NOSIG RMK A3003

TAF (pilot weather forecast)

Closest forecast is Taipei Songshan Airport, 9.6 nm (17.7 km) SE. Retrieved 2019/09/23 06:00 UTC (2 hours ago):

TAF RCSS 230500Z 2306/2406 08005KT 9999 FEW020 BKN035 TEMPO 2306/2311 07011KT TEMPO 2314/2320 5000 RA SCT010 BKN020 BKN035 BECMG 2401/2403 08011KT TEMPO 2401/2405 5000 RA SCT008 BKN017 BKN030